sensor_id;sensor_type;location;lat;lon;timestamp;P1;P2;P0
63305;PMS5003;50735;52.060;1.248;2022-10-31T00:00:44;3;3;
63305;PMS5003;50735;52.060;1.248;2022-10-31T00:03:11;4;3;
63305;PMS5003;50735;52.060;1.248;2022-10-31T00:05:40;4;4;
63305;PMS5003;50735;52.060;1.248;2022-10-31T00:08:07;8;4;
63305;PMS5003;50735;52.060;1.248;2022-10-31T00:10:33;3;3;
63305;PMS5003;50735;52.060;1.248;2022-10-31T00:13:03;4;4;
63305;PMS5003;50735;52.060;1.248;2022-10-31T00:15:32;3;3;
63305;PMS5003;50735;52.060;1.248;2022-10-31T00:17:59;3;3;
63305;PMS5003;50735;52.060;1.248;2022-10-31T00:20:26;5;4;
63305;PMS5003;50735;52.060;1.248;2022-10-31T00:22:53;5;5;
63305;PMS5003;50735;52.060;1.248;2022-10-31T00:25:19;4;4;
63305;PMS5003;50735;52.060;1.248;2022-10-31T00:27:46;8;5;
63305;PMS5003;50735;52.060;1.248;2022-10-31T00:30:13;5;5;
63305;PMS5003;50735;52.060;1.248;2022-10-31T00:32:39;5;3;
63305;PMS5003;50735;52.060;1.248;2022-10-31T00:35:06;8;5;
63305;PMS5003;50735;52.060;1.248;2022-10-31T00:37:33;9;5;
63305;PMS5003;50735;52.060;1.248;2022-10-31T00:40:00;6;6;
63305;PMS5003;50735;52.060;1.248;2022-10-31T00:42:27;3;3;
63305;PMS5003;50735;52.060;1.248;2022-10-31T00:44:54;4;4;
63305;PMS5003;50735;52.060;1.248;2022-10-31T00:47:20;5;5;
63305;PMS5003;50735;52.060;1.248;2022-10-31T00:49:47;5;5;
63305;PMS5003;50735;52.060;1.248;2022-10-31T00:52:13;6;4;
63305;PMS5003;50735;52.060;1.248;2022-10-31T00:54:40;5;5;
63305;PMS5003;50735;52.060;1.248;2022-10-31T00:57:06;5;4;
63305;PMS5003;50735;52.060;1.248;2022-10-31T00:59:33;7;5;
63305;PMS5003;50735;52.060;1.248;2022-10-31T01:01:59;9;6;
63305;PMS5003;50735;52.060;1.248;2022-10-31T01:04:26;7;4;
63305;PMS5003;50735;52.060;1.248;2022-10-31T01:06:53;10;5;
63305;PMS5003;50735;52.060;1.248;2022-10-31T01:09:20;3;3;
63305;PMS5003;50735;52.060;1.248;2022-10-31T01:11:47;6;5;
63305;PMS5003;50735;52.060;1.248;2022-10-31T01:14:14;12;7;
63305;PMS5003;50735;52.060;1.248;2022-10-31T01:16:40;4;4;
63305;PMS5003;50735;52.060;1.248;2022-10-31T01:19:08;6;5;
63305;PMS5003;50735;52.060;1.248;2022-10-31T01:21:35;6;4;
63305;PMS5003;50735;52.060;1.248;2022-10-31T01:24:02;5;5;
63305;PMS5003;50735;52.060;1.248;2022-10-31T01:26:30;6;5;
63305;PMS5003;50735;52.060;1.248;2022-10-31T01:28:59;6;4;
63305;PMS5003;50735;52.060;1.248;2022-10-31T01:31:28;5;4;
63305;PMS5003;50735;52.060;1.248;2022-10-31T01:33:56;6;5;
63305;PMS5003;50735;52.060;1.248;2022-10-31T01:36:25;13;10;
63305;PMS5003;50735;52.060;1.248;2022-10-31T01:38:55;6;6;
63305;PMS5003;50735;52.060;1.248;2022-10-31T01:41:23;8;6;
63305;PMS5003;50735;52.060;1.248;2022-10-31T01:43:53;8;5;
63305;PMS5003;50735;52.060;1.248;2022-10-31T01:46:22;5;5;
63305;PMS5003;50735;52.060;1.248;2022-10-31T01:48:52;8;5;
63305;PMS5003;50735;52.060;1.248;2022-10-31T01:51:22;9;6;
63305;PMS5003;50735;52.060;1.248;2022-10-31T01:53:52;7;5;
63305;PMS5003;50735;52.060;1.248;2022-10-31T01:56:22;6;4;
63305;PMS5003;50735;52.060;1.248;2022-10-31T01:58:48;9;8;
63305;PMS5003;50735;52.060;1.248;2022-10-31T02:01:16;10;6;
63305;PMS5003;50735;52.060;1.248;2022-10-31T02:03:44;10;6;
63305;PMS5003;50735;52.060;1.248;2022-10-31T02:06:13;7;5;
63305;PMS5003;50735;52.060;1.248;2022-10-31T02:08:47;5;5;
63305;PMS5003;50735;52.060;1.248;2022-10-31T02:11:15;5;5;
63305;PMS5003;50735;52.060;1.248;2022-10-31T02:13:41;9;8;
63305;PMS5003;50735;52.060;1.248;2022-10-31T02:16:08;8;7;
63305;PMS5003;50735;52.060;1.248;2022-10-31T02:18:36;10;7;
63305;PMS5003;50735;52.060;1.248;2022-10-31T02:21:06;7;6;
63305;PMS5003;50735;52.060;1.248;2022-10-31T02:24:15;8;6;
63305;PMS5003;50735;52.060;1.248;2022-10-31T02:27:03;5;5;
63305;PMS5003;50735;52.060;1.248;2022-10-31T02:29:42;11;7;
63305;PMS5003;50735;52.060;1.248;2022-10-31T02:32:38;9;8;
63305;PMS5003;50735;52.060;1.248;2022-10-31T02:35:13;10;8;
63305;PMS5003;50735;52.060;1.248;2022-10-31T02:37:53;15;9;
63305;PMS5003;50735;52.060;1.248;2022-10-31T02:40:29;14;11;
63305;PMS5003;50735;52.060;1.248;2022-10-31T02:43:03;14;7;
63305;PMS5003;50735;52.060;1.248;2022-10-31T02:45:35;10;7;
63305;PMS5003;50735;52.060;1.248;2022-10-31T02:48:09;12;8;
63305;PMS5003;50735;52.060;1.248;2022-10-31T02:50:41;9;7;
63305;PMS5003;50735;52.060;1.248;2022-10-31T02:53:13;10;9;
63305;PMS5003;50735;52.060;1.248;2022-10-31T02:55:44;10;5;
63305;PMS5003;50735;52.060;1.248;2022-10-31T02:58:15;12;7;
63305;PMS5003;50735;52.060;1.248;2022-10-31T03:00:48;16;13;
63305;PMS5003;50735;52.060;1.248;2022-10-31T03:03:27;8;6;
63305;PMS5003;50735;52.060;1.248;2022-10-31T03:06:03;8;6;
63305;PMS5003;50735;52.060;1.248;2022-10-31T03:08:36;6;6;
63305;PMS5003;50735;52.060;1.248;2022-10-31T03:11:09;13;8;
63305;PMS5003;50735;52.060;1.248;2022-10-31T03:13:38;14;8;
63305;PMS5003;50735;52.060;1.248;2022-10-31T03:16:10;7;7;
63305;PMS5003;50735;52.060;1.248;2022-10-31T03:18:42;8;8;
63305;PMS5003;50735;52.060;1.248;2022-10-31T03:21:14;8;8;
63305;PMS5003;50735;52.060;1.248;2022-10-31T03:23:46;11;11;
63305;PMS5003;50735;52.060;1.248;2022-10-31T03:26:16;17;11;
63305;PMS5003;50735;52.060;1.248;2022-10-31T03:28:44;13;7;
63305;PMS5003;50735;52.060;1.248;2022-10-31T03:31:16;11;8;
63305;PMS5003;50735;52.060;1.248;2022-10-31T03:33:45;13;7;
63305;PMS5003;50735;52.060;1.248;2022-10-31T03:36:14;12;6;
63305;PMS5003;50735;52.060;1.248;2022-10-31T03:38:42;10;7;
63305;PMS5003;50735;52.060;1.248;2022-10-31T03:41:14;6;6;
63305;PMS5003;50735;52.060;1.248;2022-10-31T03:43:47;6;6;
63305;PMS5003;50735;52.060;1.248;2022-10-31T03:46:19;6;6;
63305;PMS5003;50735;52.060;1.248;2022-10-31T03:48:48;14;7;
63305;PMS5003;50735;52.060;1.248;2022-10-31T03:51:16;8;6;
63305;PMS5003;50735;52.060;1.248;2022-10-31T03:53:50;6;6;
63305;PMS5003;50735;52.060;1.248;2022-10-31T03:56:22;13;6;
63305;PMS5003;50735;52.060;1.248;2022-10-31T03:58:58;13;7;
63305;PMS5003;50735;52.060;1.248;2022-10-31T04:01:28;5;5;
63305;PMS5003;50735;52.060;1.248;2022-10-31T04:03:57;6;5;
63305;PMS5003;50735;52.060;1.248;2022-10-31T04:06:26;6;6;
63305;PMS5003;50735;52.060;1.248;2022-10-31T04:08:54;8;6;
63305;PMS5003;50735;52.060;1.248;2022-10-31T04:11:27;6;5;
63305;PMS5003;50735;52.060;1.248;2022-10-31T04:13:56;5;5;
63305;PMS5003;50735;52.060;1.248;2022-10-31T04:16:26;5;5;
63305;PMS5003;50735;52.060;1.248;2022-10-31T04:18:53;9;7;
63305;PMS5003;50735;52.060;1.248;2022-10-31T04:21:26;8;7;
63305;PMS5003;50735;52.060;1.248;2022-10-31T04:23:54;5;5;
63305;PMS5003;50735;52.060;1.248;2022-10-31T04:26:21;7;6;
63305;PMS5003;50735;52.060;1.248;2022-10-31T04:28:47;8;7;
63305;PMS5003;50735;52.060;1.248;2022-10-31T04:31:14;9;7;
63305;PMS5003;50735;52.060;1.248;2022-10-31T04:33:41;11;6;
63305;PMS5003;50735;52.060;1.248;2022-10-31T04:36:09;12;8;
63305;PMS5003;50735;52.060;1.248;2022-10-31T04:38:36;8;8;
63305;PMS5003;50735;52.060;1.248;2022-10-31T04:41:03;10;8;
63305;PMS5003;50735;52.060;1.248;2022-10-31T04:43:30;9;8;
63305;PMS5003;50735;52.060;1.248;2022-10-31T04:45:56;10;7;
63305;PMS5003;50735;52.060;1.248;2022-10-31T04:48:23;8;7;
63305;PMS5003;50735;52.060;1.248;2022-10-31T04:50:49;5;5;
63305;PMS5003;50735;52.060;1.248;2022-10-31T04:53:16;11;6;
63305;PMS5003;50735;52.060;1.248;2022-10-31T04:55:42;6;6;
63305;PMS5003;50735;52.060;1.248;2022-10-31T04:58:10;10;10;
63305;PMS5003;50735;52.060;1.248;2022-10-31T05:00:37;6;6;
63305;PMS5003;50735;52.060;1.248;2022-10-31T05:03:03;7;7;
63305;PMS5003;50735;52.060;1.248;2022-10-31T05:05:30;5;5;
63305;PMS5003;50735;52.060;1.248;2022-10-31T05:07:58;5;5;
63305;PMS5003;50735;52.060;1.248;2022-10-31T05:10:25;4;4;
63305;PMS5003;50735;52.060;1.248;2022-10-31T05:12:54;7;6;
63305;PMS5003;50735;52.060;1.248;2022-10-31T05:15:23;4;4;
63305;PMS5003;50735;52.060;1.248;2022-10-31T05:17:52;6;6;
63305;PMS5003;50735;52.060;1.248;2022-10-31T05:20:21;10;7;
63305;PMS5003;50735;52.060;1.248;2022-10-31T05:22:50;8;6;
63305;PMS5003;50735;52.060;1.248;2022-10-31T05:25:19;9;8;
63305;PMS5003;50735;52.060;1.248;2022-10-31T05:27:48;9;5;
63305;PMS5003;50735;52.060;1.248;2022-10-31T05:30:17;10;6;
63305;PMS5003;50735;52.060;1.248;2022-10-31T05:32:47;5;5;
63305;PMS5003;50735;52.060;1.248;2022-10-31T05:35:17;10;9;
63305;PMS5003;50735;52.060;1.248;2022-10-31T05:37:45;10;7;
63305;PMS5003;50735;52.060;1.248;2022-10-31T05:40:13;11;8;
63305;PMS5003;50735;52.060;1.248;2022-10-31T05:42:42;10;10;
63305;PMS5003;50735;52.060;1.248;2022-10-31T05:45:10;8;8;
63305;PMS5003;50735;52.060;1.248;2022-10-31T05:47:38;9;8;
63305;PMS5003;50735;52.060;1.248;2022-10-31T05:50:06;11;9;
63305;PMS5003;50735;52.060;1.248;2022-10-31T05:52:34;8;7;
63305;PMS5003;50735;52.060;1.248;2022-10-31T05:55:01;8;8;
63305;PMS5003;50735;52.060;1.248;2022-10-31T05:57:33;10;8;
63305;PMS5003;50735;52.060;1.248;2022-10-31T06:00:00;8;8;
63305;PMS5003;50735;52.060;1.248;2022-10-31T06:02:27;11;8;
63305;PMS5003;50735;52.060;1.248;2022-10-31T06:04:53;7;7;
63305;PMS5003;50735;52.060;1.248;2022-10-31T06:07:20;9;6;
63305;PMS5003;50735;52.060;1.248;2022-10-31T06:09:47;9;7;
63305;PMS5003;50735;52.060;1.248;2022-10-31T06:12:13;10;6;
63305;PMS5003;50735;52.060;1.248;2022-10-31T06:14:40;7;6;
63305;PMS5003;50735;52.060;1.248;2022-10-31T06:17:07;11;6;
63305;PMS5003;50735;52.060;1.248;2022-10-31T06:19:34;8;6;
63305;PMS5003;50735;52.060;1.248;2022-10-31T06:22:01;9;6;
63305;PMS5003;50735;52.060;1.248;2022-10-31T06:24:28;9;6;
63305;PMS5003;50735;52.060;1.248;2022-10-31T06:26:55;7;7;
63305;PMS5003;50735;52.060;1.248;2022-10-31T06:29:22;6;5;
63305;PMS5003;50735;52.060;1.248;2022-10-31T06:31:50;8;6;
63305;PMS5003;50735;52.060;1.248;2022-10-31T06:34:17;5;5;
63305;PMS5003;50735;52.060;1.248;2022-10-31T06:36:45;11;7;
63305;PMS5003;50735;52.060;1.248;2022-10-31T06:39:12;9;4;
63305;PMS5003;50735;52.060;1.248;2022-10-31T06:41:39;8;7;
63305;PMS5003;50735;52.060;1.248;2022-10-31T06:44:07;9;7;
63305;PMS5003;50735;52.060;1.248;2022-10-31T06:46:34;5;3;
63305;PMS5003;50735;52.060;1.248;2022-10-31T06:49:00;12;6;
63305;PMS5003;50735;52.060;1.248;2022-10-31T06:51:27;6;4;
63305;PMS5003;50735;52.060;1.248;2022-10-31T06:53:53;6;6;
63305;PMS5003;50735;52.060;1.248;2022-10-31T06:56:21;6;4;
63305;PMS5003;50735;52.060;1.248;2022-10-31T06:58:47;7;4;
63305;PMS5003;50735;52.060;1.248;2022-10-31T07:01:14;5;5;
63305;PMS5003;50735;52.060;1.248;2022-10-31T07:03:41;7;4;
63305;PMS5003;50735;52.060;1.248;2022-10-31T07:06:07;6;5;
63305;PMS5003;50735;52.060;1.248;2022-10-31T07:08:34;7;4;
63305;PMS5003;50735;52.060;1.248;2022-10-31T07:11:01;6;6;
63305;PMS5003;50735;52.060;1.248;2022-10-31T07:13:27;9;6;
63305;PMS5003;50735;52.060;1.248;2022-10-31T07:15:59;13;8;
63305;PMS5003;50735;52.060;1.248;2022-10-31T07:18:28;7;4;
63305;PMS5003;50735;52.060;1.248;2022-10-31T07:20:55;4;3;
63305;PMS5003;50735;52.060;1.248;2022-10-31T07:23:22;9;6;
63305;PMS5003;50735;52.060;1.248;2022-10-31T07:25:53;7;7;
63305;PMS5003;50735;52.060;1.248;2022-10-31T07:28:21;11;11;
63305;PMS5003;50735;52.060;1.248;2022-10-31T07:30:49;6;5;
63305;PMS5003;50735;52.060;1.248;2022-10-31T07:33:16;5;5;
63305;PMS5003;50735;52.060;1.248;2022-10-31T07:35:44;7;5;
63305;PMS5003;50735;52.060;1.248;2022-10-31T07:38:11;11;6;
63305;PMS5003;50735;52.060;1.248;2022-10-31T07:40:39;5;5;
63305;PMS5003;50735;52.060;1.248;2022-10-31T07:43:07;7;6;
63305;PMS5003;50735;52.060;1.248;2022-10-31T07:45:36;5;5;
63305;PMS5003;50735;52.060;1.248;2022-10-31T07:48:04;6;5;
63305;PMS5003;50735;52.060;1.248;2022-10-31T07:50:31;10;6;
63305;PMS5003;50735;52.060;1.248;2022-10-31T07:52:59;14;7;
63305;PMS5003;50735;52.060;1.248;2022-10-31T07:55:26;6;5;
63305;PMS5003;50735;52.060;1.248;2022-10-31T07:57:57;8;5;
63305;PMS5003;50735;52.060;1.248;2022-10-31T08:00:25;8;7;
63305;PMS5003;50735;52.060;1.248;2022-10-31T08:02:56;5;3;
63305;PMS5003;50735;52.060;1.248;2022-10-31T08:05:23;11;6;
63305;PMS5003;50735;52.060;1.248;2022-10-31T08:07:50;9;6;
63305;PMS5003;50735;52.060;1.248;2022-10-31T08:10:17;6;4;
63305;PMS5003;50735;52.060;1.248;2022-10-31T08:12:43;6;3;
63305;PMS5003;50735;52.060;1.248;2022-10-31T08:15:10;2;2;
63305;PMS5003;50735;52.060;1.248;2022-10-31T08:17:37;7;4;
63305;PMS5003;50735;52.060;1.248;2022-10-31T08:20:05;8;5;
63305;PMS5003;50735;52.060;1.248;2022-10-31T08:22:33;5;5;
63305;PMS5003;50735;52.060;1.248;2022-10-31T08:25:00;10;6;
63305;PMS5003;50735;52.060;1.248;2022-10-31T08:27:26;5;5;
63305;PMS5003;50735;52.060;1.248;2022-10-31T08:29:54;5;4;
63305;PMS5003;50735;52.060;1.248;2022-10-31T08:32:20;14;6;
63305;PMS5003;50735;52.060;1.248;2022-10-31T08:34:47;8;5;
63305;PMS5003;50735;52.060;1.248;2022-10-31T08:37:14;7;4;
63305;PMS5003;50735;52.060;1.248;2022-10-31T08:39:40;6;3;
63305;PMS5003;50735;52.060;1.248;2022-10-31T08:42:07;7;7;
63305;PMS5003;50735;52.060;1.248;2022-10-31T08:44:33;4;4;
63305;PMS5003;50735;52.060;1.248;2022-10-31T08:47:00;6;3;
63305;PMS5003;50735;52.060;1.248;2022-10-31T08:49:27;6;6;
63305;PMS5003;50735;52.060;1.248;2022-10-31T08:51:54;6;6;
63305;PMS5003;50735;52.060;1.248;2022-10-31T08:54:20;6;3;
63305;PMS5003;50735;52.060;1.248;2022-10-31T08:56:47;14;9;
63305;PMS5003;50735;52.060;1.248;2022-10-31T08:59:19;4;3;
63305;PMS5003;50735;52.060;1.248;2022-10-31T09:01:45;10;5;
63305;PMS5003;50735;52.060;1.248;2022-10-31T09:04:12;5;4;
63305;PMS5003;50735;52.060;1.248;2022-10-31T09:06:38;10;4;
63305;PMS5003;50735;52.060;1.248;2022-10-31T09:09:06;4;3;
63305;PMS5003;50735;52.060;1.248;2022-10-31T09:11:32;7;7;
63305;PMS5003;50735;52.060;1.248;2022-10-31T09:14:00;9;5;
63305;PMS5003;50735;52.060;1.248;2022-10-31T09:16:26;5;5;
63305;PMS5003;50735;52.060;1.248;2022-10-31T09:18:52;8;5;
63305;PMS5003;50735;52.060;1.248;2022-10-31T09:21:19;4;3;
63305;PMS5003;50735;52.060;1.248;2022-10-31T09:23:45;6;2;
63305;PMS5003;50735;52.060;1.248;2022-10-31T09:26:12;7;5;
63305;PMS5003;50735;52.060;1.248;2022-10-31T09:28:38;5;5;
63305;PMS5003;50735;52.060;1.248;2022-10-31T09:31:05;6;6;
63305;PMS5003;50735;52.060;1.248;2022-10-31T09:33:32;8;4;
63305;PMS5003;50735;52.060;1.248;2022-10-31T09:35:59;8;6;
63305;PMS5003;50735;52.060;1.248;2022-10-31T09:38:26;6;6;
63305;PMS5003;50735;52.060;1.248;2022-10-31T09:40:54;7;6;
63305;PMS5003;50735;52.060;1.248;2022-10-31T09:43:25;6;4;
63305;PMS5003;50735;52.060;1.248;2022-10-31T09:46:02;15;6;
63305;PMS5003;50735;52.060;1.248;2022-10-31T09:48:38;6;5;
63305;PMS5003;50735;52.060;1.248;2022-10-31T09:51:12;7;4;
63305;PMS5003;50735;52.060;1.248;2022-10-31T09:53:43;7;7;
63305;PMS5003;50735;52.060;1.248;2022-10-31T09:56:15;8;8;
63305;PMS5003;50735;52.060;1.248;2022-10-31T09:58:45;5;5;
63305;PMS5003;50735;52.060;1.248;2022-10-31T10:01:19;5;5;
63305;PMS5003;50735;52.060;1.248;2022-10-31T10:03:55;7;6;
63305;PMS5003;50735;52.060;1.248;2022-10-31T10:06:27;5;5;
63305;PMS5003;50735;52.060;1.248;2022-10-31T10:08:55;6;5;
63305;PMS5003;50735;52.060;1.248;2022-10-31T10:11:27;7;5;
63305;PMS5003;50735;52.060;1.248;2022-10-31T10:14:06;8;4;
63305;PMS5003;50735;52.060;1.248;2022-10-31T10:16:47;8;7;
63305;PMS5003;50735;52.060;1.248;2022-10-31T10:19:27;9;6;
63305;PMS5003;50735;52.060;1.248;2022-10-31T10:22:09;6;4;
63305;PMS5003;50735;52.060;1.248;2022-10-31T10:24:53;7;5;
63305;PMS5003;50735;52.060;1.248;2022-10-31T10:27:27;10;10;
63305;PMS5003;50735;52.060;1.248;2022-10-31T10:30:10;6;4;
63305;PMS5003;50735;52.060;1.248;2022-10-31T10:32:40;8;7;
63305;PMS5003;50735;52.060;1.248;2022-10-31T10:35:13;7;5;
63305;PMS5003;50735;52.060;1.248;2022-10-31T10:37:46;6;5;
63305;PMS5003;50735;52.060;1.248;2022-10-31T10:40:19;8;7;
63305;PMS5003;50735;52.060;1.248;2022-10-31T10:42:53;5;5;
63305;PMS5003;50735;52.060;1.248;2022-10-31T10:45:26;9;6;
63305;PMS5003;50735;52.060;1.248;2022-10-31T10:47:59;7;5;
63305;PMS5003;50735;52.060;1.248;2022-10-31T10:50:33;11;7;
63305;PMS5003;50735;52.060;1.248;2022-10-31T10:53:07;8;6;
63305;PMS5003;50735;52.060;1.248;2022-10-31T10:55:42;8;8;
63305;PMS5003;50735;52.060;1.248;2022-10-31T10:58:17;3;3;
63305;PMS5003;50735;52.060;1.248;2022-10-31T11:00:45;8;6;
63305;PMS5003;50735;52.060;1.248;2022-10-31T11:03:13;7;5;
63305;PMS5003;50735;52.060;1.248;2022-10-31T11:05:42;6;6;
63305;PMS5003;50735;52.060;1.248;2022-10-31T11:08:22;8;5;
63305;PMS5003;50735;52.060;1.248;2022-10-31T11:10:56;7;4;
63305;PMS5003;50735;52.060;1.248;2022-10-31T11:13:24;5;5;
63305;PMS5003;50735;52.060;1.248;2022-10-31T11:15:55;6;6;
63305;PMS5003;50735;52.060;1.248;2022-10-31T11:18:26;5;4;
63305;PMS5003;50735;52.060;1.248;2022-10-31T11:20:57;6;3;
63305;PMS5003;50735;52.060;1.248;2022-10-31T11:23:26;5;3;
63305;PMS5003;50735;52.060;1.248;2022-10-31T11:25:56;3;3;
63305;PMS5003;50735;52.060;1.248;2022-10-31T11:28:24;8;4;
63305;PMS5003;50735;52.060;1.248;2022-10-31T11:30:52;3;3;
63305;PMS5003;50735;52.060;1.248;2022-10-31T11:33:22;3;3;
63305;PMS5003;50735;52.060;1.248;2022-10-31T11:35:54;3;3;
63305;PMS5003;50735;52.060;1.248;2022-10-31T11:38:23;2;2;
63305;PMS5003;50735;52.060;1.248;2022-10-31T11:40:54;3;3;
63305;PMS5003;50735;52.060;1.248;2022-10-31T11:43:23;4;4;
63305;PMS5003;50735;52.060;1.248;2022-10-31T11:45:51;3;3;
63305;PMS5003;50735;52.060;1.248;2022-10-31T11:48:18;8;4;
63305;PMS5003;50735;52.060;1.248;2022-10-31T11:50:48;3;3;
63305;PMS5003;50735;52.060;1.248;2022-10-31T11:53:17;6;4;
63305;PMS5003;50735;52.060;1.248;2022-10-31T11:55:46;2;1;
63305;PMS5003;50735;52.060;1.248;2022-10-31T11:58:26;2;2;
63305;PMS5003;50735;52.060;1.248;2022-10-31T12:00:54;3;3;
63305;PMS5003;50735;52.060;1.248;2022-10-31T12:03:54;3;2;
63305;PMS5003;50735;52.060;1.248;2022-10-31T12:06:33;4;3;
63305;PMS5003;50735;52.060;1.248;2022-10-31T12:09:02;5;2;
63305;PMS5003;50735;52.060;1.248;2022-10-31T12:11:47;7;4;
63305;PMS5003;50735;52.060;1.248;2022-10-31T12:14:25;9;2;
63305;PMS5003;50735;52.060;1.248;2022-10-31T12:17:01;2;1;
63305;PMS5003;50735;52.060;1.248;2022-10-31T12:19:36;1;1;
63305;PMS5003;50735;52.060;1.248;2022-10-31T12:22:13;1;1;
63305;PMS5003;50735;52.060;1.248;2022-10-31T12:24:52;6;5;
63305;PMS5003;50735;52.060;1.248;2022-10-31T12:27:33;2;1;
63305;PMS5003;50735;52.060;1.248;2022-10-31T12:30:13;3;3;
63305;PMS5003;50735;52.060;1.248;2022-10-31T12:32:52;5;2;
63305;PMS5003;50735;52.060;1.248;2022-10-31T12:36:10;3;3;
63305;PMS5003;50735;52.060;1.248;2022-10-31T12:38:52;2;2;
63305;PMS5003;50735;52.060;1.248;2022-10-31T12:41:31;5;3;
63305;PMS5003;50735;52.060;1.248;2022-10-31T12:44:12;3;3;
63305;PMS5003;50735;52.060;1.248;2022-10-31T12:46:57;6;3;
63305;PMS5003;50735;52.060;1.248;2022-10-31T12:49:41;3;3;
63305;PMS5003;50735;52.060;1.248;2022-10-31T12:52:20;3;3;
63305;PMS5003;50735;52.060;1.248;2022-10-31T12:55:05;2;2;
63305;PMS5003;50735;52.060;1.248;2022-10-31T12:57:42;2;1;
63305;PMS5003;50735;52.060;1.248;2022-10-31T13:00:13;4;3;
63305;PMS5003;50735;52.060;1.248;2022-10-31T13:02:43;2;2;
63305;PMS5003;50735;52.060;1.248;2022-10-31T13:05:18;5;3;
63305;PMS5003;50735;52.060;1.248;2022-10-31T13:07:52;3;2;
63305;PMS5003;50735;52.060;1.248;2022-10-31T13:10:25;5;2;
63305;PMS5003;50735;52.060;1.248;2022-10-31T13:13:05;10;4;
63305;PMS5003;50735;52.060;1.248;2022-10-31T13:15:41;3;1;
63305;PMS5003;50735;52.060;1.248;2022-10-31T13:18:21;3;3;
63305;PMS5003;50735;52.060;1.248;2022-10-31T13:20:53;2;2;
63305;PMS5003;50735;52.060;1.248;2022-10-31T13:23:23;3;2;
63305;PMS5003;50735;52.060;1.248;2022-10-31T13:25:55;4;2;
63305;PMS5003;50735;52.060;1.248;2022-10-31T13:28:26;4;3;
63305;PMS5003;50735;52.060;1.248;2022-10-31T13:30:59;4;1;
63305;PMS5003;50735;52.060;1.248;2022-10-31T13:33:27;5;2;
63305;PMS5003;50735;52.060;1.248;2022-10-31T13:36:00;3;2;
63305;PMS5003;50735;52.060;1.248;2022-10-31T13:38:38;10;3;
63305;PMS5003;50735;52.060;1.248;2022-10-31T13:41:12;7;4;
63305;PMS5003;50735;52.060;1.248;2022-10-31T13:43:53;2;2;
63305;PMS5003;50735;52.060;1.248;2022-10-31T13:46:34;1;1;
63305;PMS5003;50735;52.060;1.248;2022-10-31T13:49:02;5;2;
63305;PMS5003;50735;52.060;1.248;2022-10-31T13:51:30;3;3;
63305;PMS5003;50735;52.060;1.248;2022-10-31T13:53:59;2;2;
63305;PMS5003;50735;52.060;1.248;2022-10-31T13:56:28;1;1;
63305;PMS5003;50735;52.060;1.248;2022-10-31T13:58:57;2;2;
63305;PMS5003;50735;52.060;1.248;2022-10-31T14:01:27;5;5;
63305;PMS5003;50735;52.060;1.248;2022-10-31T14:03:56;3;3;
63305;PMS5003;50735;52.060;1.248;2022-10-31T14:06:35;8;5;
63305;PMS5003;50735;52.060;1.248;2022-10-31T14:09:05;10;7;
63305;PMS5003;50735;52.060;1.248;2022-10-31T14:11:41;16;8;
63305;PMS5003;50735;52.060;1.248;2022-10-31T14:14:12;7;7;
63305;PMS5003;50735;52.060;1.248;2022-10-31T14:16:40;7;5;
63305;PMS5003;50735;52.060;1.248;2022-10-31T14:19:13;7;6;
63305;PMS5003;50735;52.060;1.248;2022-10-31T14:21:43;6;6;
63305;PMS5003;50735;52.060;1.248;2022-10-31T14:24:15;6;4;
63305;PMS5003;50735;52.060;1.248;2022-10-31T14:26:58;4;3;
63305;PMS5003;50735;52.060;1.248;2022-10-31T14:29:27;5;3;
63305;PMS5003;50735;52.060;1.248;2022-10-31T14:31:57;2;2;
63305;PMS5003;50735;52.060;1.248;2022-10-31T14:34:28;6;3;
63305;PMS5003;50735;52.060;1.248;2022-10-31T14:37:35;3;3;
63305;PMS5003;50735;52.060;1.248;2022-10-31T14:40:18;5;4;
63305;PMS5003;50735;52.060;1.248;2022-10-31T14:42:56;7;6;
63305;PMS5003;50735;52.060;1.248;2022-10-31T14:45:40;9;9;
63305;PMS5003;50735;52.060;1.248;2022-10-31T14:48:22;6;4;
63305;PMS5003;50735;52.060;1.248;2022-10-31T14:50:56;6;6;
63305;PMS5003;50735;52.060;1.248;2022-10-31T14:53:25;6;6;
63305;PMS5003;50735;52.060;1.248;2022-10-31T14:55:56;2;2;
63305;PMS5003;50735;52.060;1.248;2022-10-31T14:58:24;2;2;
63305;PMS5003;50735;52.060;1.248;2022-10-31T15:00:58;4;2;
63305;PMS5003;50735;52.060;1.248;2022-10-31T15:03:27;2;2;
63305;PMS5003;50735;52.060;1.248;2022-10-31T15:05:59;6;5;
63305;PMS5003;50735;52.060;1.248;2022-10-31T15:08:31;6;4;
63305;PMS5003;50735;52.060;1.248;2022-10-31T15:11:13;7;7;
63305;PMS5003;50735;52.060;1.248;2022-10-31T15:13:43;10;6;
63305;PMS5003;50735;52.060;1.248;2022-10-31T15:16:11;9;9;
63305;PMS5003;50735;52.060;1.248;2022-10-31T15:18:46;9;9;
63305;PMS5003;50735;52.060;1.248;2022-10-31T15:21:14;14;11;
63305;PMS5003;50735;52.060;1.248;2022-10-31T15:23:43;8;7;
63305;PMS5003;50735;52.060;1.248;2022-10-31T15:26:12;8;8;
63305;PMS5003;50735;52.060;1.248;2022-10-31T15:28:44;5;5;
63305;PMS5003;50735;52.060;1.248;2022-10-31T15:31:13;6;5;
63305;PMS5003;50735;52.060;1.248;2022-10-31T15:33:42;4;4;
63305;PMS5003;50735;52.060;1.248;2022-10-31T15:36:18;8;5;
63305;PMS5003;50735;52.060;1.248;2022-10-31T15:38:46;10;6;
63305;PMS5003;50735;52.060;1.248;2022-10-31T15:41:20;6;5;
63305;PMS5003;50735;52.060;1.248;2022-10-31T15:43:52;4;4;
63305;PMS5003;50735;52.060;1.248;2022-10-31T15:46:21;6;6;
63305;PMS5003;50735;52.060;1.248;2022-10-31T15:48:48;6;4;
63305;PMS5003;50735;52.060;1.248;2022-10-31T15:51:14;7;6;
63305;PMS5003;50735;52.060;1.248;2022-10-31T15:53:43;6;6;
63305;PMS5003;50735;52.060;1.248;2022-10-31T15:56:21;10;7;
63305;PMS5003;50735;52.060;1.248;2022-10-31T15:58:52;9;8;
63305;PMS5003;50735;52.060;1.248;2022-10-31T16:01:22;9;6;
63305;PMS5003;50735;52.060;1.248;2022-10-31T16:04:21;6;6;
63305;PMS5003;50735;52.060;1.248;2022-10-31T16:06:56;10;9;
63305;PMS5003;50735;52.060;1.248;2022-10-31T16:09:25;12;9;
63305;PMS5003;50735;52.060;1.248;2022-10-31T16:11:53;10;9;
63305;PMS5003;50735;52.060;1.248;2022-10-31T16:14:22;7;5;
63305;PMS5003;50735;52.060;1.248;2022-10-31T16:16:52;12;10;
63305;PMS5003;50735;52.060;1.248;2022-10-31T16:19:22;12;10;
63305;PMS5003;50735;52.060;1.248;2022-10-31T16:21:53;10;10;
63305;PMS5003;50735;52.060;1.248;2022-10-31T16:24:28;7;7;
63305;PMS5003;50735;52.060;1.248;2022-10-31T16:26:57;13;11;
63305;PMS5003;50735;52.060;1.248;2022-10-31T16:29:39;12;12;
63305;PMS5003;50735;52.060;1.248;2022-10-31T16:32:23;11;10;
63305;PMS5003;50735;52.060;1.248;2022-10-31T16:35:00;11;9;
63305;PMS5003;50735;52.060;1.248;2022-10-31T16:37:43;10;10;
63305;PMS5003;50735;52.060;1.248;2022-10-31T16:40:11;7;7;
63305;PMS5003;50735;52.060;1.248;2022-10-31T16:42:39;11;9;
63305;PMS5003;50735;52.060;1.248;2022-10-31T16:45:07;6;6;
63305;PMS5003;50735;52.060;1.248;2022-10-31T16:47:39;7;7;
63305;PMS5003;50735;52.060;1.248;2022-10-31T16:50:10;8;7;
63305;PMS5003;50735;52.060;1.248;2022-10-31T16:52:40;10;7;
63305;PMS5003;50735;52.060;1.248;2022-10-31T16:55:10;9;6;
63305;PMS5003;50735;52.060;1.248;2022-10-31T16:57:37;6;6;
63305;PMS5003;50735;52.060;1.248;2022-10-31T17:00:04;10;8;
63305;PMS5003;50735;52.060;1.248;2022-10-31T17:02:32;11;8;
63305;PMS5003;50735;52.060;1.248;2022-10-31T17:04:59;7;5;
63305;PMS5003;50735;52.060;1.248;2022-10-31T17:07:25;7;7;
63305;PMS5003;50735;52.060;1.248;2022-10-31T17:09:52;8;7;
63305;PMS5003;50735;52.060;1.248;2022-10-31T17:12:19;9;6;